createdAt,value
2023-05-21T00:00:00.214Z,14.5
2023-05-21T00:05:00.259Z,14.5
2023-05-21T00:10:00.244Z,14.5
2023-05-21T00:15:00.216Z,14.4
2023-05-21T00:20:00.322Z,14.4
2023-05-21T00:25:00.239Z,14.4
2023-05-21T00:30:00.237Z,14.3
2023-05-21T00:35:00.252Z,14.2
2023-05-21T00:40:00.298Z,14.2
2023-05-21T00:45:00.259Z,14.2
2023-05-21T00:50:00.254Z,14.2
2023-05-21T00:55:00.160Z,14.1
2023-05-21T01:00:00.244Z,14.1
2023-05-21T01:05:00.201Z,14
2023-05-21T01:10:00.245Z,14
2023-05-21T01:15:00.189Z,13.9
2023-05-21T01:20:00.193Z,13.9
2023-05-21T01:25:00.248Z,13.9
2023-05-21T01:30:00.253Z,13.8
2023-05-21T01:35:00.294Z,13.8
2023-05-21T01:40:00.167Z,13.8
2023-05-21T01:45:00.183Z,13.8
2023-05-21T01:50:00.250Z,13.7
2023-05-21T01:55:00.273Z,13.7
2023-05-21T02:00:00.174Z,13.7
2023-05-21T02:05:00.166Z,13.7
2023-05-21T02:10:00.187Z,13.6
2023-05-21T02:15:00.249Z,13.6
2023-05-21T02:20:00.236Z,13.6
2023-05-21T02:30:00.194Z,13.5
2023-05-21T02:35:00.256Z,13.5
2023-05-21T02:40:00.209Z,13.5
2023-05-21T02:45:00.243Z,13.5
2023-05-21T02:50:00.296Z,13.5
2023-05-21T02:55:00.298Z,13.5
2023-05-21T03:00:00.542Z,13.4
2023-05-21T03:05:00.249Z,13.4
2023-05-21T03:10:00.244Z,13.4
2023-05-21T03:15:00.244Z,13.4
2023-05-21T03:20:00.261Z,13.3
2023-05-21T03:25:00.497Z,13.3
2023-05-21T03:30:00.221Z,13.3
2023-05-21T03:35:00.280Z,13.3
2023-05-21T03:40:00.269Z,13.2
2023-05-21T03:45:00.192Z,13.2
2023-05-21T03:50:00.331Z,13.2
2023-05-21T03:55:00.241Z,13.2
2023-05-21T04:00:00.370Z,13.1
2023-05-21T04:05:00.286Z,13.1
2023-05-21T04:10:00.248Z,13.1
2023-05-21T04:15:00.265Z,13.1
2023-05-21T04:20:00.268Z,13
2023-05-21T04:30:00.243Z,13
2023-05-21T04:35:00.232Z,13
2023-05-21T04:40:00.259Z,13
2023-05-21T04:45:00.276Z,13
2023-05-21T04:50:00.233Z,13
2023-05-21T04:55:00.188Z,13
2023-05-21T05:00:00.317Z,13
2023-05-21T05:05:00.280Z,13
2023-05-21T05:10:00.211Z,13
2023-05-21T05:15:00.241Z,13
2023-05-21T05:20:00.249Z,13
2023-05-21T05:25:00.239Z,13
2023-05-21T05:30:00.205Z,13.1
2023-05-21T05:35:02.185Z,13.1
2023-05-21T05:40:00.269Z,13.1
2023-05-21T05:45:00.216Z,13.2
2023-05-21T05:50:00.211Z,13.2
2023-05-21T05:55:00.244Z,13.2
2023-05-21T06:00:00.275Z,13.2
2023-05-21T06:05:00.263Z,13.3
2023-05-21T06:10:00.173Z,13.3
2023-05-21T06:15:00.256Z,13.4
2023-05-21T06:20:00.172Z,13.4
2023-05-21T06:25:00.255Z,13.5
2023-05-21T06:30:00.217Z,13.6
2023-05-21T06:35:00.251Z,13.6
2023-05-21T06:40:00.227Z,13.7
2023-05-21T06:45:00.194Z,13.7
2023-05-21T06:50:00.258Z,13.8
2023-05-21T06:55:00.175Z,13.8
2023-05-21T07:00:00.252Z,14
2023-05-21T07:05:00.246Z,14.1
2023-05-21T07:10:00.184Z,14.1
2023-05-21T07:15:00.184Z,14.2
2023-05-21T07:20:00.160Z,14.2
2023-05-21T07:25:00.225Z,14.3
2023-05-21T07:30:00.276Z,14.4
2023-05-21T07:35:00.274Z,14.4
2023-05-21T07:40:00.225Z,14.4
2023-05-21T07:45:00.273Z,14.5
2023-05-21T07:50:00.300Z,14.6
2023-05-21T07:55:00.305Z,14.7
2023-05-21T08:00:00.166Z,14.8
2023-05-21T08:05:00.281Z,14.9
2023-05-21T08:10:02.191Z,15
2023-05-21T08:15:00.238Z,15
2023-05-21T08:20:00.191Z,15.2
2023-05-21T08:25:00.245Z,15.2
2023-05-21T08:30:00.206Z,15.4
2023-05-21T08:35:00.250Z,15.4
2023-05-21T08:40:00.200Z,15.5
2023-05-21T08:45:00.248Z,15.6
2023-05-21T08:50:00.233Z,15.7
2023-05-21T08:55:00.279Z,15.8
2023-05-21T09:00:00.300Z,15.9
2023-05-21T09:05:00.213Z,16.1
2023-05-21T09:10:00.188Z,16.2
2023-05-21T09:15:00.255Z,16.3
2023-05-21T09:20:00.220Z,16.4
2023-05-21T09:25:00.231Z,16.5
2023-05-21T09:30:00.194Z,16.6
2023-05-21T09:35:00.193Z,16.7
2023-05-21T09:40:00.228Z,16.9
2023-05-21T09:45:00.337Z,17
2023-05-21T09:50:00.235Z,17.2
2023-05-21T09:55:00.240Z,17.2
2023-05-21T10:00:00.286Z,17.4
2023-05-21T10:05:00.236Z,17.5
2023-05-21T10:10:00.223Z,17.6
2023-05-21T10:15:00.579Z,17.8
2023-05-21T10:20:00.263Z,17.9
2023-05-21T10:25:00.246Z,18
2023-05-21T10:30:00.169Z,18.1
2023-05-21T10:35:01.735Z,18.2
2023-05-21T10:40:00.171Z,18.3
2023-05-21T10:45:00.251Z,18.5
2023-05-21T10:50:00.210Z,18.6
2023-05-21T10:55:00.255Z,18.6
2023-05-21T11:00:00.235Z,18.7
2023-05-21T11:05:00.237Z,18.8
2023-05-21T11:10:00.193Z,18.9
2023-05-21T11:15:00.248Z,19
2023-05-21T11:20:00.237Z,19.1
2023-05-21T11:25:00.282Z,19.2
2023-05-21T11:30:00.221Z,19.3
2023-05-21T11:35:00.251Z,19.4
2023-05-21T11:40:00.257Z,19.6
2023-05-21T11:45:00.248Z,19.7
2023-05-21T11:50:00.252Z,19.8
2023-05-21T11:55:00.224Z,19.8
2023-05-21T12:00:00.319Z,19.8
2023-05-21T12:05:00.729Z,19.9
2023-05-21T12:10:00.227Z,20
2023-05-21T12:15:00.278Z,20
2023-05-21T12:20:00.216Z,20.1
2023-05-21T12:25:00.242Z,20.1
2023-05-21T12:30:00.202Z,20.2
2023-05-21T12:35:00.369Z,20.2
2023-05-21T12:40:00.179Z,20.4
2023-05-21T12:45:00.294Z,20.4
2023-05-21T12:50:00.266Z,20.5
2023-05-21T12:55:00.240Z,20.6
2023-05-21T13:00:00.278Z,20.7
2023-05-21T13:05:00.180Z,20.8
2023-05-21T13:10:00.203Z,20.8
2023-05-21T13:15:00.188Z,21
2023-05-21T13:20:00.222Z,21.1
2023-05-21T13:25:00.308Z,21.4
2023-05-21T13:30:00.248Z,21.4
2023-05-21T13:35:00.639Z,21.5
2023-05-21T13:40:00.273Z,21.7
2023-05-21T13:45:00.241Z,21.8
2023-05-21T13:50:00.260Z,22
2023-05-21T13:55:00.226Z,22.1
2023-05-21T14:00:00.263Z,22.4
2023-05-21T14:05:00.205Z,22.6
2023-05-21T14:10:00.196Z,22.9
2023-05-21T14:15:00.248Z,23.1
2023-05-21T14:20:00.179Z,23.3
2023-05-21T14:25:00.256Z,23.6
2023-05-21T14:30:00.255Z,23.8
2023-05-21T14:35:00.254Z,24
2023-05-21T14:40:00.161Z,24.1
2023-05-21T14:45:16.980Z,24.2
2023-05-21T14:50:00.212Z,24.2
2023-05-21T14:55:00.226Z,24.2
2023-05-21T15:00:00.222Z,24.1
2023-05-21T15:05:00.257Z,24
2023-05-21T15:10:00.214Z,23.9
2023-05-21T15:15:00.267Z,23.9
2023-05-21T15:20:00.152Z,23.8
2023-05-21T15:25:00.263Z,23.7
2023-05-21T15:30:00.424Z,23.6
2023-05-21T15:35:00.548Z,23.5
2023-05-21T15:40:00.372Z,23.4
2023-05-21T15:45:00.284Z,23.4
2023-05-21T15:50:00.515Z,23.3
2023-05-21T15:55:00.261Z,23.2
2023-05-21T16:00:00.273Z,23.1
2023-05-21T16:05:00.256Z,23.1
2023-05-21T16:10:00.196Z,23.2
2023-05-21T16:15:00.191Z,23.1
2023-05-21T16:20:00.206Z,23.2
2023-05-21T16:25:00.212Z,23.2
2023-05-21T16:30:00.241Z,23.3
2023-05-21T16:35:00.596Z,23.3
2023-05-21T16:40:00.268Z,23.3
2023-05-21T16:45:00.320Z,23.4
2023-05-21T16:50:00.193Z,23.4
2023-05-21T16:55:00.253Z,23.4
2023-05-21T17:00:00.261Z,23.4
2023-05-21T17:05:00.181Z,23.5
2023-05-21T17:10:00.229Z,23.5
2023-05-21T17:15:00.310Z,23.6
2023-05-21T17:20:00.208Z,23.6
2023-05-21T17:25:00.244Z,23.6
2023-05-21T17:30:00.219Z,23.6
2023-05-21T17:35:00.207Z,23.5
2023-05-21T17:40:00.167Z,23.4
2023-05-21T17:45:00.249Z,23.4
2023-05-21T17:50:00.217Z,23.4
2023-05-21T17:55:00.249Z,23.4
2023-05-21T18:00:00.161Z,23.3
2023-05-21T18:05:00.254Z,23.3
2023-05-21T18:10:00.383Z,23.2
2023-05-21T18:15:00.248Z,23.2
2023-05-21T18:20:00.239Z,23.2
2023-05-21T18:25:00.231Z,23.1
2023-05-21T18:30:00.196Z,23.1
2023-05-21T18:35:00.183Z,23
2023-05-21T18:40:00.219Z,23
2023-05-21T18:45:00.208Z,22.9
2023-05-21T18:50:00.216Z,22.8
2023-05-21T18:55:00.264Z,22.8
2023-05-21T19:00:00.416Z,22.7
2023-05-21T19:05:00.260Z,22.6
2023-05-21T19:10:00.434Z,22.6
2023-05-21T19:15:00.293Z,22.5
2023-05-21T19:20:00.224Z,22.4
2023-05-21T19:25:00.275Z,22.3
2023-05-21T19:30:00.242Z,22.2
2023-05-21T19:35:00.262Z,22.2
2023-05-21T19:40:00.211Z,22.1
2023-05-21T19:45:00.255Z,22
2023-05-21T19:50:00.176Z,21.9
2023-05-21T19:55:00.196Z,21.8
2023-05-21T20:00:00.242Z,21.7
2023-05-21T20:05:00.278Z,21.6
2023-05-21T20:10:00.210Z,21.5
2023-05-21T20:15:00.297Z,21.4
2023-05-21T20:20:00.176Z,21.3
2023-05-21T20:25:00.246Z,21.2
2023-05-21T20:30:00.255Z,21.1
2023-05-21T20:35:03.770Z,21
2023-05-21T20:40:00.280Z,21
2023-05-21T20:45:00.326Z,20.8
2023-05-21T20:50:00.230Z,20.7
2023-05-21T20:55:00.263Z,20.6
2023-05-21T21:00:00.228Z,20.4
2023-05-21T21:05:00.274Z,20.2
2023-05-21T21:10:00.170Z,19.9
2023-05-21T21:15:00.480Z,19.8
2023-05-21T21:20:00.246Z,19.6
2023-05-21T21:25:00.178Z,19.4
2023-05-21T21:30:00.248Z,19.3
2023-05-21T21:35:00.176Z,19.2
2023-05-21T21:40:00.281Z,19.1
2023-05-21T21:45:00.268Z,18.9
2023-05-21T21:50:00.230Z,18.8
2023-05-21T21:55:00.207Z,18.7
2023-05-21T22:00:00.268Z,18.6
2023-05-21T22:05:00.373Z,18.5
2023-05-21T22:10:00.229Z,18.4
2023-05-21T22:15:00.237Z,18.4
2023-05-21T22:20:00.155Z,18.3
2023-05-21T22:25:00.170Z,18.3
2023-05-21T22:30:00.228Z,18.2
2023-05-21T22:35:00.239Z,18.2
2023-05-21T22:40:00.333Z,18.2
2023-05-21T22:45:00.299Z,18.2
2023-05-21T22:50:00.166Z,18.2
2023-05-21T22:55:00.250Z,18.2
2023-05-21T23:00:00.253Z,18.2
2023-05-21T23:05:00.344Z,18.2
2023-05-21T23:10:00.181Z,18.2
2023-05-21T23:15:00.193Z,18.2
2023-05-21T23:20:00.233Z,18.2
2023-05-21T23:25:00.268Z,18.1
2023-05-21T23:30:00.282Z,18.1
2023-05-21T23:35:00.251Z,18.1
2023-05-21T23:40:00.181Z,18.1
2023-05-21T23:45:00.260Z,18
2023-05-21T23:50:00.285Z,18
2023-05-21T23:55:00.255Z,18
